Francis Place, Louisiana
Current Conditions -  °F | °C
As of 2:53 AM on Friday 31 Oct 2014 (Local Time) from KNEW Reporting Station
Clear Clear  
Wind Chill: 66°   Ceiling: Unl
Heat Index: 66°   Visibility: 10mi
Dew Point: 49°   Wind: 12mph
Humidity: 54%   Direction: 360°N
Pressure: 30.04"   Gusts: NA
Location:  29.9486°N, 89.8975°W
Report Text: KNEW 310753Z AUTO 36010KT 10SM CLR 19/09 A3004 RMK AO2 SLP166 T01890094 TSNO
Loading
Personal Weather Stations






























Interactive Weather Map
Tropical Storm Tracking
New forecast layout! Learn more

10-Day Weather Forecast

Advertisements
Track Severe Weather on mobile